sensor_id;sensor_type;location;lat;lon;timestamp;temperature;humidity
814;DHT22;389;48.710;9.392;2024-02-23T00:02:05;7.60;99.90
814;DHT22;389;48.710;9.392;2024-02-23T00:04:31;7.60;99.90
814;DHT22;389;48.710;9.392;2024-02-23T00:06:57;7.60;99.90
814;DHT22;389;48.710;9.392;2024-02-23T00:09:22;7.50;99.90
814;DHT22;389;48.710;9.392;2024-02-23T00:11:49;7.50;99.90
814;DHT22;389;48.710;9.392;2024-02-23T00:14:16;7.60;99.90
814;DHT22;389;48.710;9.392;2024-02-23T00:16:46;7.50;99.90
814;DHT22;389;48.710;9.392;2024-02-23T00:19:11;7.60;99.90
814;DHT22;389;48.710;9.392;2024-02-23T00:21:40;7.60;99.90
814;DHT22;389;48.710;9.392;2024-02-23T00:24:07;7.50;99.90
814;DHT22;389;48.710;9.392;2024-02-23T00:26:33;7.60;99.90
814;DHT22;389;48.710;9.392;2024-02-23T00:28:59;7.60;99.90
814;DHT22;389;48.710;9.392;2024-02-23T00:31:24;7.60;99.90
814;DHT22;389;48.710;9.392;2024-02-23T00:33:50;7.50;99.90
814;DHT22;389;48.710;9.392;2024-02-23T00:36:16;7.50;99.90
814;DHT22;389;48.710;9.392;2024-02-23T00:38:42;7.50;99.90
814;DHT22;389;48.710;9.392;2024-02-23T00:41:08;7.60;99.90
814;DHT22;389;48.710;9.392;2024-02-23T00:43:40;7.50;99.90
814;DHT22;389;48.710;9.392;2024-02-23T00:46:07;7.50;99.90
814;DHT22;389;48.710;9.392;2024-02-23T00:48:33;7.50;99.90
814;DHT22;389;48.710;9.392;2024-02-23T00:50:58;7.50;99.90
814;DHT22;389;48.710;9.392;2024-02-23T00:53:24;7.50;99.90
814;DHT22;389;48.710;9.392;2024-02-23T00:55:50;7.50;99.90
814;DHT22;389;48.710;9.392;2024-02-23T00:58:15;7.50;99.90
814;DHT22;389;48.710;9.392;2024-02-23T01:00:41;7.40;99.90
814;DHT22;389;48.710;9.392;2024-02-23T01:03:07;7.50;99.90
814;DHT22;389;48.710;9.392;2024-02-23T01:05:32;7.50;99.90
814;DHT22;389;48.710;9.392;2024-02-23T01:07:58;7.50;99.90
814;DHT22;389;48.710;9.392;2024-02-23T01:10:24;7.50;99.90
814;DHT22;389;48.710;9.392;2024-02-23T01:12:49;7.50;99.90
814;DHT22;389;48.710;9.392;2024-02-23T01:15:15;7.50;99.90
814;DHT22;389;48.710;9.392;2024-02-23T01:17:40;7.60;99.90
814;DHT22;389;48.710;9.392;2024-02-23T01:20:06;7.50;99.90
814;DHT22;389;48.710;9.392;2024-02-23T01:22:32;7.50;99.90
814;DHT22;389;48.710;9.392;2024-02-23T01:24:58;7.50;99.90
814;DHT22;389;48.710;9.392;2024-02-23T01:27:23;7.50;99.90
814;DHT22;389;48.710;9.392;2024-02-23T01:29:49;7.50;99.90
814;DHT22;389;48.710;9.392;2024-02-23T01:32:14;7.40;99.90
814;DHT22;389;48.710;9.392;2024-02-23T01:34:40;7.40;99.90
814;DHT22;389;48.710;9.392;2024-02-23T01:37:06;7.40;99.90
814;DHT22;389;48.710;9.392;2024-02-23T01:39:31;7.30;99.90
814;DHT22;389;48.710;9.392;2024-02-23T01:41:57;7.40;99.90
814;DHT22;389;48.710;9.392;2024-02-23T01:44:23;7.20;99.90
814;DHT22;389;48.710;9.392;2024-02-23T01:46:49;7.20;99.90
814;DHT22;389;48.710;9.392;2024-02-23T01:49:15;7.10;99.90
814;DHT22;389;48.710;9.392;2024-02-23T01:51:41;7.00;99.90
814;DHT22;389;48.710;9.392;2024-02-23T01:54:07;7.00;99.90
814;DHT22;389;48.710;9.392;2024-02-23T01:56:33;6.90;99.90
814;DHT22;389;48.710;9.392;2024-02-23T01:59:02;6.90;99.90
814;DHT22;389;48.710;9.392;2024-02-23T02:01:30;6.90;99.90
814;DHT22;389;48.710;9.392;2024-02-23T02:03:56;6.80;99.90
814;DHT22;389;48.710;9.392;2024-02-23T02:06:22;6.80;99.90
814;DHT22;389;48.710;9.392;2024-02-23T02:08:48;6.80;99.90
814;DHT22;389;48.710;9.392;2024-02-23T02:11:14;6.70;99.90
814;DHT22;389;48.710;9.392;2024-02-23T02:13:40;6.70;99.90
814;DHT22;389;48.710;9.392;2024-02-23T02:16:06;6.60;99.90
814;DHT22;389;48.710;9.392;2024-02-23T02:18:32;6.60;99.90
814;DHT22;389;48.710;9.392;2024-02-23T02:20:57;6.60;99.90
814;DHT22;389;48.710;9.392;2024-02-23T02:23:24;6.60;99.90
814;DHT22;389;48.710;9.392;2024-02-23T02:25:56;6.50;99.90
814;DHT22;389;48.710;9.392;2024-02-23T02:28:23;6.40;99.90
814;DHT22;389;48.710;9.392;2024-02-23T02:30:50;6.50;99.90
814;DHT22;389;48.710;9.392;2024-02-23T02:33:16;6.40;99.90
814;DHT22;389;48.710;9.392;2024-02-23T02:35:41;6.40;99.90
814;DHT22;389;48.710;9.392;2024-02-23T02:38:07;6.40;99.90
814;DHT22;389;48.710;9.392;2024-02-23T02:40:33;6.50;99.90
814;DHT22;389;48.710;9.392;2024-02-23T02:42:58;6.50;99.90
814;DHT22;389;48.710;9.392;2024-02-23T02:45:24;6.40;99.90
814;DHT22;389;48.710;9.392;2024-02-23T02:47:49;6.30;99.90
814;DHT22;389;48.710;9.392;2024-02-23T02:50:15;6.30;99.90
814;DHT22;389;48.710;9.392;2024-02-23T02:52:41;6.40;99.90
814;DHT22;389;48.710;9.392;2024-02-23T02:55:07;6.30;99.90
814;DHT22;389;48.710;9.392;2024-02-23T02:57:33;6.30;99.90
814;DHT22;389;48.710;9.392;2024-02-23T03:00:01;6.30;99.90
814;DHT22;389;48.710;9.392;2024-02-23T03:02:30;6.30;99.90
814;DHT22;389;48.710;9.392;2024-02-23T03:04:56;6.30;99.90
814;DHT22;389;48.710;9.392;2024-02-23T03:07:21;6.30;99.90
814;DHT22;389;48.710;9.392;2024-02-23T03:09:47;6.30;99.90
814;DHT22;389;48.710;9.392;2024-02-23T03:12:14;6.30;99.90
814;DHT22;389;48.710;9.392;2024-02-23T03:14:39;6.30;99.90
814;DHT22;389;48.710;9.392;2024-02-23T03:17:07;6.30;99.90
814;DHT22;389;48.710;9.392;2024-02-23T03:19:32;6.30;99.90
814;DHT22;389;48.710;9.392;2024-02-23T03:21:58;6.30;99.90
814;DHT22;389;48.710;9.392;2024-02-23T03:24:24;6.30;99.90
814;DHT22;389;48.710;9.392;2024-02-23T03:26:50;6.30;99.90
814;DHT22;389;48.710;9.392;2024-02-23T03:29:15;6.40;99.90
814;DHT22;389;48.710;9.392;2024-02-23T03:31:41;6.40;99.90
814;DHT22;389;48.710;9.392;2024-02-23T03:34:07;6.30;99.90
814;DHT22;389;48.710;9.392;2024-02-23T03:36:34;6.40;99.90
814;DHT22;389;48.710;9.392;2024-02-23T03:39:00;6.30;99.90
814;DHT22;389;48.710;9.392;2024-02-23T03:41:25;6.30;99.90
814;DHT22;389;48.710;9.392;2024-02-23T03:43:51;6.30;99.90
814;DHT22;389;48.710;9.392;2024-02-23T03:46:17;6.30;99.90
814;DHT22;389;48.710;9.392;2024-02-23T03:48:43;6.30;99.90
814;DHT22;389;48.710;9.392;2024-02-23T03:51:10;6.30;99.90
814;DHT22;389;48.710;9.392;2024-02-23T03:53:35;6.30;99.90
814;DHT22;389;48.710;9.392;2024-02-23T03:56:01;6.30;99.90
814;DHT22;389;48.710;9.392;2024-02-23T03:58:26;6.20;99.90
814;DHT22;389;48.710;9.392;2024-02-23T04:00:52;6.20;99.90
814;DHT22;389;48.710;9.392;2024-02-23T04:03:18;6.20;99.90
814;DHT22;389;48.710;9.392;2024-02-23T04:05:44;6.10;99.90
814;DHT22;389;48.710;9.392;2024-02-23T04:08:09;6.10;99.90
814;DHT22;389;48.710;9.392;2024-02-23T04:10:35;6.20;99.90
814;DHT22;389;48.710;9.392;2024-02-23T04:13:01;6.20;99.90
814;DHT22;389;48.710;9.392;2024-02-23T04:15:27;6.10;99.90
814;DHT22;389;48.710;9.392;2024-02-23T04:17:52;6.20;99.90
814;DHT22;389;48.710;9.392;2024-02-23T04:20:18;6.10;99.90
814;DHT22;389;48.710;9.392;2024-02-23T04:22:44;6.10;99.90
814;DHT22;389;48.710;9.392;2024-02-23T04:25:09;6.10;99.90
814;DHT22;389;48.710;9.392;2024-02-23T04:27:35;6.10;99.90
814;DHT22;389;48.710;9.392;2024-02-23T04:30:01;6.10;99.90
814;DHT22;389;48.710;9.392;2024-02-23T04:32:27;6.10;99.90
814;DHT22;389;48.710;9.392;2024-02-23T04:34:52;6.00;99.90
814;DHT22;389;48.710;9.392;2024-02-23T04:37:18;6.00;99.90
814;DHT22;389;48.710;9.392;2024-02-23T04:39:44;6.00;99.90
814;DHT22;389;48.710;9.392;2024-02-23T04:42:09;6.00;99.90
814;DHT22;389;48.710;9.392;2024-02-23T04:44:35;5.90;99.90
814;DHT22;389;48.710;9.392;2024-02-23T04:47:01;5.90;99.90
814;DHT22;389;48.710;9.392;2024-02-23T04:49:27;6.00;99.90
814;DHT22;389;48.710;9.392;2024-02-23T04:51:53;6.00;99.90
814;DHT22;389;48.710;9.392;2024-02-23T04:54:18;5.90;99.90
814;DHT22;389;48.710;9.392;2024-02-23T04:56:44;5.90;99.90
814;DHT22;389;48.710;9.392;2024-02-23T04:59:10;5.80;99.90
814;DHT22;389;48.710;9.392;2024-02-23T05:01:36;5.80;99.90
814;DHT22;389;48.710;9.392;2024-02-23T05:04:03;5.80;99.90
814;DHT22;389;48.710;9.392;2024-02-23T05:06:29;5.80;99.90
814;DHT22;389;48.710;9.392;2024-02-23T05:08:55;5.70;99.90
814;DHT22;389;48.710;9.392;2024-02-23T05:11:20;5.70;99.90
814;DHT22;389;48.710;9.392;2024-02-23T05:13:46;5.80;99.90
814;DHT22;389;48.710;9.392;2024-02-23T05:16:14;5.80;99.90
814;DHT22;389;48.710;9.392;2024-02-23T05:18:39;5.80;99.90
814;DHT22;389;48.710;9.392;2024-02-23T05:21:06;5.70;99.90
814;DHT22;389;48.710;9.392;2024-02-23T05:23:31;5.70;99.90
814;DHT22;389;48.710;9.392;2024-02-23T05:25:57;5.70;99.90
814;DHT22;389;48.710;9.392;2024-02-23T05:28:22;5.60;99.90
814;DHT22;389;48.710;9.392;2024-02-23T05:30:48;5.60;99.90
814;DHT22;389;48.710;9.392;2024-02-23T05:33:13;5.60;99.90
814;DHT22;389;48.710;9.392;2024-02-23T05:35:39;5.60;99.90
814;DHT22;389;48.710;9.392;2024-02-23T05:38:04;5.60;99.90
814;DHT22;389;48.710;9.392;2024-02-23T05:40:31;5.50;99.90
814;DHT22;389;48.710;9.392;2024-02-23T05:43:00;5.50;99.90
814;DHT22;389;48.710;9.392;2024-02-23T05:45:25;5.50;99.90
814;DHT22;389;48.710;9.392;2024-02-23T05:47:51;5.50;99.90
814;DHT22;389;48.710;9.392;2024-02-23T05:50:16;5.50;99.90
814;DHT22;389;48.710;9.392;2024-02-23T05:52:42;5.40;99.90
814;DHT22;389;48.710;9.392;2024-02-23T05:55:08;5.50;99.90
814;DHT22;389;48.710;9.392;2024-02-23T05:57:34;5.40;99.90
814;DHT22;389;48.710;9.392;2024-02-23T05:59:59;5.40;99.90
814;DHT22;389;48.710;9.392;2024-02-23T06:02:25;5.30;99.90
814;DHT22;389;48.710;9.392;2024-02-23T06:04:51;5.30;99.90
814;DHT22;389;48.710;9.392;2024-02-23T06:07:17;5.30;99.90
814;DHT22;389;48.710;9.392;2024-02-23T06:09:43;5.30;99.90
814;DHT22;389;48.710;9.392;2024-02-23T06:12:09;5.40;99.90
814;DHT22;389;48.710;9.392;2024-02-23T06:14:35;5.20;99.90
814;DHT22;389;48.710;9.392;2024-02-23T06:17:01;5.20;99.90
814;DHT22;389;48.710;9.392;2024-02-23T06:19:27;5.20;99.90
814;DHT22;389;48.710;9.392;2024-02-23T06:21:52;5.20;99.90
814;DHT22;389;48.710;9.392;2024-02-23T06:24:18;5.10;99.90
814;DHT22;389;48.710;9.392;2024-02-23T06:26:44;5.10;99.90
814;DHT22;389;48.710;9.392;2024-02-23T06:29:11;5.00;99.90
814;DHT22;389;48.710;9.392;2024-02-23T06:31:38;5.00;99.90
814;DHT22;389;48.710;9.392;2024-02-23T06:34:04;5.00;99.90
814;DHT22;389;48.710;9.392;2024-02-23T06:36:30;5.00;99.90
814;DHT22;389;48.710;9.392;2024-02-23T06:38:56;5.00;99.90
814;DHT22;389;48.710;9.392;2024-02-23T06:41:21;5.00;99.90
814;DHT22;389;48.710;9.392;2024-02-23T06:43:47;5.00;99.90
814;DHT22;389;48.710;9.392;2024-02-23T06:46:13;4.90;99.90
814;DHT22;389;48.710;9.392;2024-02-23T06:48:39;5.00;99.90
814;DHT22;389;48.710;9.392;2024-02-23T06:51:07;5.00;99.90
814;DHT22;389;48.710;9.392;2024-02-23T06:53:34;4.90;99.90
814;DHT22;389;48.710;9.392;2024-02-23T06:56:00;5.10;99.90
814;DHT22;389;48.710;9.392;2024-02-23T06:58:26;5.00;99.90
814;DHT22;389;48.710;9.392;2024-02-23T07:00:52;5.00;99.90
814;DHT22;389;48.710;9.392;2024-02-23T07:03:17;5.00;99.90
814;DHT22;389;48.710;9.392;2024-02-23T07:05:43;5.00;99.90
814;DHT22;389;48.710;9.392;2024-02-23T07:08:10;5.10;99.90
814;DHT22;389;48.710;9.392;2024-02-23T07:10:36;5.10;99.90
814;DHT22;389;48.710;9.392;2024-02-23T07:13:02;5.10;99.90
814;DHT22;389;48.710;9.392;2024-02-23T07:15:27;5.20;99.90
814;DHT22;389;48.710;9.392;2024-02-23T07:17:53;5.20;99.90
814;DHT22;389;48.710;9.392;2024-02-23T07:20:18;5.30;99.90
814;DHT22;389;48.710;9.392;2024-02-23T07:22:47;5.30;99.90
814;DHT22;389;48.710;9.392;2024-02-23T07:25:17;5.40;99.90
814;DHT22;389;48.710;9.392;2024-02-23T07:27:42;5.40;99.90
814;DHT22;389;48.710;9.392;2024-02-23T07:30:09;5.40;99.90
814;DHT22;389;48.710;9.392;2024-02-23T07:32:35;5.50;99.90
814;DHT22;389;48.710;9.392;2024-02-23T07:35:00;5.50;99.90
814;DHT22;389;48.710;9.392;2024-02-23T07:37:26;5.60;99.90
814;DHT22;389;48.710;9.392;2024-02-23T07:39:52;5.70;99.90
814;DHT22;389;48.710;9.392;2024-02-23T07:42:18;5.70;99.90
814;DHT22;389;48.710;9.392;2024-02-23T07:44:44;5.80;99.90
814;DHT22;389;48.710;9.392;2024-02-23T07:47:11;5.90;99.90
814;DHT22;389;48.710;9.392;2024-02-23T07:49:37;6.10;99.90
814;DHT22;389;48.710;9.392;2024-02-23T07:52:03;6.20;99.90
814;DHT22;389;48.710;9.392;2024-02-23T07:54:29;6.20;99.90
814;DHT22;389;48.710;9.392;2024-02-23T07:56:54;6.40;99.90
814;DHT22;389;48.710;9.392;2024-02-23T07:59:20;6.50;99.90
814;DHT22;389;48.710;9.392;2024-02-23T08:01:46;6.50;99.90
814;DHT22;389;48.710;9.392;2024-02-23T08:04:13;6.70;99.90
814;DHT22;389;48.710;9.392;2024-02-23T08:06:39;6.80;99.90
814;DHT22;389;48.710;9.392;2024-02-23T08:09:04;6.80;99.90
814;DHT22;389;48.710;9.392;2024-02-23T08:11:30;6.90;99.90
814;DHT22;389;48.710;9.392;2024-02-23T08:13:56;6.90;99.90
814;DHT22;389;48.710;9.392;2024-02-23T08:16:21;7.00;99.90
814;DHT22;389;48.710;9.392;2024-02-23T08:18:47;7.10;99.90
814;DHT22;389;48.710;9.392;2024-02-23T08:21:12;7.20;99.90
814;DHT22;389;48.710;9.392;2024-02-23T08:23:38;7.20;99.90
814;DHT22;389;48.710;9.392;2024-02-23T08:26:04;7.30;99.90
814;DHT22;389;48.710;9.392;2024-02-23T08:28:29;7.40;99.90
814;DHT22;389;48.710;9.392;2024-02-23T08:30:55;7.40;99.90
814;DHT22;389;48.710;9.392;2024-02-23T08:33:21;7.50;99.90
814;DHT22;389;48.710;9.392;2024-02-23T08:35:46;7.50;99.90
814;DHT22;389;48.710;9.392;2024-02-23T08:38:14;7.60;99.90
814;DHT22;389;48.710;9.392;2024-02-23T08:40:39;7.70;99.80
814;DHT22;389;48.710;9.392;2024-02-23T08:43:05;7.80;99.50
814;DHT22;389;48.710;9.392;2024-02-23T08:45:31;7.80;98.80
814;DHT22;389;48.710;9.392;2024-02-23T08:47:56;7.90;98.70
814;DHT22;389;48.710;9.392;2024-02-23T08:50:22;8.00;98.50
814;DHT22;389;48.710;9.392;2024-02-23T08:52:48;8.10;98.10
814;DHT22;389;48.710;9.392;2024-02-23T08:55:13;8.20;97.60
814;DHT22;389;48.710;9.392;2024-02-23T08:57:39;8.30;96.70
814;DHT22;389;48.710;9.392;2024-02-23T09:00:05;8.30;95.30
814;DHT22;389;48.710;9.392;2024-02-23T09:02:31;8.40;94.00
814;DHT22;389;48.710;9.392;2024-02-23T09:04:58;8.50;94.30
814;DHT22;389;48.710;9.392;2024-02-23T09:07:23;8.50;94.10
814;DHT22;389;48.710;9.392;2024-02-23T09:09:49;8.60;93.70
814;DHT22;389;48.710;9.392;2024-02-23T09:12:18;8.70;93.30
814;DHT22;389;48.710;9.392;2024-02-23T09:14:44;8.80;93.30
814;DHT22;389;48.710;9.392;2024-02-23T09:17:09;8.80;92.80
814;DHT22;389;48.710;9.392;2024-02-23T09:19:36;8.80;92.70
814;DHT22;389;48.710;9.392;2024-02-23T09:22:02;9.00;92.40
814;DHT22;389;48.710;9.392;2024-02-23T09:24:28;9.00;92.40
814;DHT22;389;48.710;9.392;2024-02-23T09:26:54;9.00;92.50
814;DHT22;389;48.710;9.392;2024-02-23T09:29:19;9.10;92.00
814;DHT22;389;48.710;9.392;2024-02-23T09:31:46;9.20;92.20
814;DHT22;389;48.710;9.392;2024-02-23T09:34:11;9.30;92.30
814;DHT22;389;48.710;9.392;2024-02-23T09:36:37;9.40;91.90
814;DHT22;389;48.710;9.392;2024-02-23T09:39:02;9.50;91.90
814;DHT22;389;48.710;9.392;2024-02-23T09:41:30;9.60;91.80
814;DHT22;389;48.710;9.392;2024-02-23T09:43:59;9.70;91.40
814;DHT22;389;48.710;9.392;2024-02-23T09:46:26;9.80;91.30
814;DHT22;389;48.710;9.392;2024-02-23T09:48:52;10.00;90.60
814;DHT22;389;48.710;9.392;2024-02-23T09:51:19;10.10;90.30
814;DHT22;389;48.710;9.392;2024-02-23T09:53:47;10.20;90.00
814;DHT22;389;48.710;9.392;2024-02-23T09:56:15;10.20;89.10
814;DHT22;389;48.710;9.392;2024-02-23T09:58:43;10.30;89.00
814;DHT22;389;48.710;9.392;2024-02-23T10:01:10;10.40;88.80
814;DHT22;389;48.710;9.392;2024-02-23T10:03:37;10.40;87.70
814;DHT22;389;48.710;9.392;2024-02-23T10:06:03;10.40;87.80
814;DHT22;389;48.710;9.392;2024-02-23T10:08:30;10.40;87.80
814;DHT22;389;48.710;9.392;2024-02-23T10:10:56;10.40;87.80
814;DHT22;389;48.710;9.392;2024-02-23T10:13:24;10.50;87.90
814;DHT22;389;48.710;9.392;2024-02-23T10:15:53;10.60;87.70
814;DHT22;389;48.710;9.392;2024-02-23T10:18:19;10.60;87.60
814;DHT22;389;48.710;9.392;2024-02-23T10:20:46;10.60;87.90
814;DHT22;389;48.710;9.392;2024-02-23T10:23:12;10.60;86.50
814;DHT22;389;48.710;9.392;2024-02-23T10:25:37;10.70;86.60
814;DHT22;389;48.710;9.392;2024-02-23T10:28:05;10.80;86.70
814;DHT22;389;48.710;9.392;2024-02-23T10:30:31;10.80;85.20
814;DHT22;389;48.710;9.392;2024-02-23T10:32:57;10.90;86.30
814;DHT22;389;48.710;9.392;2024-02-23T10:35:24;10.90;83.60
814;DHT22;389;48.710;9.392;2024-02-23T10:37:51;10.90;81.80
814;DHT22;389;48.710;9.392;2024-02-23T10:40:18;10.90;81.70
814;DHT22;389;48.710;9.392;2024-02-23T10:42:47;11.00;82.80
814;DHT22;389;48.710;9.392;2024-02-23T10:45:18;11.00;83.80
814;DHT22;389;48.710;9.392;2024-02-23T10:47:44;11.00;82.50
814;DHT22;389;48.710;9.392;2024-02-23T10:50:11;11.20;82.10
814;DHT22;389;48.710;9.392;2024-02-23T10:52:41;11.10;81.30
814;DHT22;389;48.710;9.392;2024-02-23T10:55:08;11.30;81.30
814;DHT22;389;48.710;9.392;2024-02-23T10:57:35;11.30;80.60
814;DHT22;389;48.710;9.392;2024-02-23T11:00:05;11.40;80.30
814;DHT22;389;48.710;9.392;2024-02-23T11:02:55;11.40;80.60
814;DHT22;389;48.710;9.392;2024-02-23T11:05:21;11.60;80.00
814;DHT22;389;48.710;9.392;2024-02-23T11:07:48;11.50;79.90
814;DHT22;389;48.710;9.392;2024-02-23T11:10:17;11.70;78.50
814;DHT22;389;48.710;9.392;2024-02-23T11:12:43;11.60;78.10
814;DHT22;389;48.710;9.392;2024-02-23T11:15:09;11.70;78.60
814;DHT22;389;48.710;9.392;2024-02-23T11:17:50;11.70;77.40
814;DHT22;389;48.710;9.392;2024-02-23T11:20:15;11.70;77.60
814;DHT22;389;48.710;9.392;2024-02-23T11:22:41;11.80;77.60
814;DHT22;389;48.710;9.392;2024-02-23T11:25:08;11.80;77.70
814;DHT22;389;48.710;9.392;2024-02-23T11:27:35;11.90;77.30
814;DHT22;389;48.710;9.392;2024-02-23T11:30:06;11.90;76.10
814;DHT22;389;48.710;9.392;2024-02-23T11:32:43;12.00;76.10
814;DHT22;389;48.710;9.392;2024-02-23T11:35:11;12.00;76.30
814;DHT22;389;48.710;9.392;2024-02-23T11:37:52;12.00;76.90
814;DHT22;389;48.710;9.392;2024-02-23T11:40:28;12.00;76.80
814;DHT22;389;48.710;9.392;2024-02-23T11:42:59;12.10;77.30
814;DHT22;389;48.710;9.392;2024-02-23T11:45:30;12.10;77.00
814;DHT22;389;48.710;9.392;2024-02-23T11:47:56;12.10;76.00
814;DHT22;389;48.710;9.392;2024-02-23T11:50:22;12.20;76.20
814;DHT22;389;48.710;9.392;2024-02-23T11:52:48;12.20;76.60
814;DHT22;389;48.710;9.392;2024-02-23T11:55:19;12.20;76.10
814;DHT22;389;48.710;9.392;2024-02-23T11:57:47;12.20;75.80
814;DHT22;389;48.710;9.392;2024-02-23T12:00:13;12.20;74.90
814;DHT22;389;48.710;9.392;2024-02-23T12:02:39;12.20;74.50
814;DHT22;389;48.710;9.392;2024-02-23T12:05:05;12.30;74.70
814;DHT22;389;48.710;9.392;2024-02-23T12:07:31;12.30;75.00
814;DHT22;389;48.710;9.392;2024-02-23T12:10:01;12.30;74.10
814;DHT22;389;48.710;9.392;2024-02-23T12:12:26;12.40;74.80
814;DHT22;389;48.710;9.392;2024-02-23T12:14:53;12.50;74.80
814;DHT22;389;48.710;9.392;2024-02-23T12:17:18;12.60;74.00
814;DHT22;389;48.710;9.392;2024-02-23T12:19:44;12.60;73.90
814;DHT22;389;48.710;9.392;2024-02-23T12:22:10;12.80;74.20
814;DHT22;389;48.710;9.392;2024-02-23T12:24:36;12.70;74.20
814;DHT22;389;48.710;9.392;2024-02-23T12:27:02;12.70;72.80
814;DHT22;389;48.710;9.392;2024-02-23T12:29:27;12.60;72.60
814;DHT22;389;48.710;9.392;2024-02-23T12:32:05;12.60;73.40
814;DHT22;389;48.710;9.392;2024-02-23T12:34:32;12.60;74.00
814;DHT22;389;48.710;9.392;2024-02-23T12:36:57;12.70;73.50
814;DHT22;389;48.710;9.392;2024-02-23T12:39:23;12.60;73.60
814;DHT22;389;48.710;9.392;2024-02-23T12:41:49;12.60;74.60
814;DHT22;389;48.710;9.392;2024-02-23T12:44:16;12.50;75.00
814;DHT22;389;48.710;9.392;2024-02-23T12:46:41;12.40;74.80
814;DHT22;389;48.710;9.392;2024-02-23T12:49:07;12.40;74.60
814;DHT22;389;48.710;9.392;2024-02-23T12:51:33;12.40;74.90
814;DHT22;389;48.710;9.392;2024-02-23T12:54:00;12.50;75.50
814;DHT22;389;48.710;9.392;2024-02-23T12:56:25;12.50;74.60
814;DHT22;389;48.710;9.392;2024-02-23T12:58:51;12.40;74.40
814;DHT22;389;48.710;9.392;2024-02-23T13:01:19;12.40;74.50
814;DHT22;389;48.710;9.392;2024-02-23T13:03:44;12.50;74.40
814;DHT22;389;48.710;9.392;2024-02-23T13:06:10;12.50;74.20
814;DHT22;389;48.710;9.392;2024-02-23T13:08:36;12.50;74.80
814;DHT22;389;48.710;9.392;2024-02-23T13:11:02;12.60;74.60
814;DHT22;389;48.710;9.392;2024-02-23T13:13:31;12.60;74.80
814;DHT22;389;48.710;9.392;2024-02-23T13:15:59;12.70;74.40
814;DHT22;389;48.710;9.392;2024-02-23T13:18:25;12.70;74.60
814;DHT22;389;48.710;9.392;2024-02-23T13:20:51;12.70;74.20
814;DHT22;389;48.710;9.392;2024-02-23T13:23:19;12.70;74.10
814;DHT22;389;48.710;9.392;2024-02-23T13:25:45;12.70;74.70
814;DHT22;389;48.710;9.392;2024-02-23T13:28:11;12.80;74.70
814;DHT22;389;48.710;9.392;2024-02-23T13:30:39;12.80;74.60
814;DHT22;389;48.710;9.392;2024-02-23T13:33:05;12.60;73.10
814;DHT22;389;48.710;9.392;2024-02-23T13:35:36;12.70;73.20
814;DHT22;389;48.710;9.392;2024-02-23T13:38:04;12.80;73.60
814;DHT22;389;48.710;9.392;2024-02-23T13:41:12;12.90;73.90
814;DHT22;389;48.710;9.392;2024-02-23T13:46:51;12.90;74.20
814;DHT22;389;48.710;9.392;2024-02-23T13:49:17;12.80;73.50
814;DHT22;389;48.710;9.392;2024-02-23T13:51:43;12.70;73.30
814;DHT22;389;48.710;9.392;2024-02-23T13:54:11;12.70;73.10
814;DHT22;389;48.710;9.392;2024-02-23T13:56:36;12.70;73.50
814;DHT22;389;48.710;9.392;2024-02-23T13:59:03;12.60;73.90
814;DHT22;389;48.710;9.392;2024-02-23T14:01:29;12.60;74.50
814;DHT22;389;48.710;9.392;2024-02-23T14:03:55;12.70;74.70
814;DHT22;389;48.710;9.392;2024-02-23T14:06:20;12.60;74.50
814;DHT22;389;48.710;9.392;2024-02-23T14:08:46;12.70;74.20
814;DHT22;389;48.710;9.392;2024-02-23T14:11:13;12.70;73.40
814;DHT22;389;48.710;9.392;2024-02-23T14:13:39;12.70;73.30
814;DHT22;389;48.710;9.392;2024-02-23T14:16:04;12.60;74.00
814;DHT22;389;48.710;9.392;2024-02-23T14:18:31;12.60;73.70
814;DHT22;389;48.710;9.392;2024-02-23T14:20:59;12.50;74.00
814;DHT22;389;48.710;9.392;2024-02-23T14:23:25;12.50;74.30
814;DHT22;389;48.710;9.392;2024-02-23T14:25:50;12.40;73.60
814;DHT22;389;48.710;9.392;2024-02-23T14:28:17;12.40;73.90
814;DHT22;389;48.710;9.392;2024-02-23T14:30:42;12.30;73.70
814;DHT22;389;48.710;9.392;2024-02-23T14:33:08;12.50;74.30
814;DHT22;389;48.710;9.392;2024-02-23T14:35:34;12.40;74.00
814;DHT22;389;48.710;9.392;2024-02-23T14:37:59;12.40;73.90
814;DHT22;389;48.710;9.392;2024-02-23T14:40:25;12.40;73.90
814;DHT22;389;48.710;9.392;2024-02-23T14:42:50;12.40;73.90
814;DHT22;389;48.710;9.392;2024-02-23T14:45:16;12.40;73.70
814;DHT22;389;48.710;9.392;2024-02-23T14:47:42;12.50;74.70
814;DHT22;389;48.710;9.392;2024-02-23T14:50:10;12.60;74.30
814;DHT22;389;48.710;9.392;2024-02-23T14:52:35;12.70;72.90
814;DHT22;389;48.710;9.392;2024-02-23T14:55:01;12.70;72.20
814;DHT22;389;48.710;9.392;2024-02-23T14:57:27;12.70;72.80
814;DHT22;389;48.710;9.392;2024-02-23T14:59:52;12.60;73.50
814;DHT22;389;48.710;9.392;2024-02-23T15:02:22;12.60;74.10
814;DHT22;389;48.710;9.392;2024-02-23T15:04:48;12.60;74.80
814;DHT22;389;48.710;9.392;2024-02-23T15:07:14;12.50;74.50
814;DHT22;389;48.710;9.392;2024-02-23T15:09:40;12.50;74.90
814;DHT22;389;48.710;9.392;2024-02-23T15:12:06;12.40;75.00
814;DHT22;389;48.710;9.392;2024-02-23T15:14:32;12.40;74.30
814;DHT22;389;48.710;9.392;2024-02-23T15:16:57;12.30;74.10
814;DHT22;389;48.710;9.392;2024-02-23T15:19:23;12.30;74.20
814;DHT22;389;48.710;9.392;2024-02-23T15:21:49;12.30;74.30
814;DHT22;389;48.710;9.392;2024-02-23T15:24:15;12.20;74.40
814;DHT22;389;48.710;9.392;2024-02-23T15:26:43;12.00;74.60
814;DHT22;389;48.710;9.392;2024-02-23T15:29:10;11.90;75.50
814;DHT22;389;48.710;9.392;2024-02-23T15:31:36;11.90;76.10
814;DHT22;389;48.710;9.392;2024-02-23T15:34:03;11.90;76.40
814;DHT22;389;48.710;9.392;2024-02-23T15:36:28;12.00;76.20
814;DHT22;389;48.710;9.392;2024-02-23T15:38:55;11.90;75.50
814;DHT22;389;48.710;9.392;2024-02-23T15:41:27;12.00;75.90
814;DHT22;389;48.710;9.392;2024-02-23T15:43:53;12.00;74.40
814;DHT22;389;48.710;9.392;2024-02-23T15:46:19;12.00;74.90
814;DHT22;389;48.710;9.392;2024-02-23T15:48:44;12.20;74.50
814;DHT22;389;48.710;9.392;2024-02-23T15:51:10;12.20;74.70
814;DHT22;389;48.710;9.392;2024-02-23T15:53:36;12.20;74.50
814;DHT22;389;48.710;9.392;2024-02-23T15:56:01;12.30;74.80
814;DHT22;389;48.710;9.392;2024-02-23T15:58:27;12.20;73.80
814;DHT22;389;48.710;9.392;2024-02-23T16:00:53;12.20;74.00
814;DHT22;389;48.710;9.392;2024-02-23T16:03:20;12.20;74.00
814;DHT22;389;48.710;9.392;2024-02-23T16:05:45;12.10;74.20
814;DHT22;389;48.710;9.392;2024-02-23T16:08:14;12.00;73.90
814;DHT22;389;48.710;9.392;2024-02-23T16:10:39;11.80;73.90
814;DHT22;389;48.710;9.392;2024-02-23T16:13:06;11.70;73.70
814;DHT22;389;48.710;9.392;2024-02-23T16:15:32;11.60;74.50
814;DHT22;389;48.710;9.392;2024-02-23T16:17:57;11.50;75.70
814;DHT22;389;48.710;9.392;2024-02-23T16:20:24;11.30;76.30
814;DHT22;389;48.710;9.392;2024-02-23T16:22:49;11.30;77.00
814;DHT22;389;48.710;9.392;2024-02-23T16:25:16;11.30;77.60
814;DHT22;389;48.710;9.392;2024-02-23T16:27:42;11.10;77.90
814;DHT22;389;48.710;9.392;2024-02-23T16:30:09;11.00;78.10
814;DHT22;389;48.710;9.392;2024-02-23T16:32:34;10.90;78.10
814;DHT22;389;48.710;9.392;2024-02-23T16:35:00;10.90;78.40
814;DHT22;389;48.710;9.392;2024-02-23T16:37:26;10.70;78.80
814;DHT22;389;48.710;9.392;2024-02-23T16:39:52;10.60;79.00
814;DHT22;389;48.710;9.392;2024-02-23T16:42:18;10.50;79.40